NCAR-RAP Real-Time Weather Data

Output produced by METARs form (08 May 2021  00:26 UTC)
found at http://weather.rap.ucar.edu/surface/
 
KIPT 072354Z 26006KT 4SM RA BR BKN040 OVC048 08/06 A2985 RMK AO2 SLP111 P0011 60015 T00830061 10128 20083 53005
KIPT 072337Z 28003KT 3SM RA FEW012 SCT021 OVC036 09/06 A2985 RMK AO2 P0009 T00890061
KIPT 072331Z 26005KT 2 1/2SM RA FEW011 BKN020 OVC036 09/06 A2985 RMK AO2 P0007 T00890061
KIPT 072321Z 28007KT 3SM RA FEW013 BKN024 OVC038 09/06 A2985 RMK AO2 P0004 T00890061
KIPT 072254Z 06005KT 3SM RA FEW016 SCT038 OVC049 10/07 A2984 RMK AO2 RAB2157 SLP109 P0002 T01000072
KIPT 072154Z 08008KT 10SM OVC055 11/07 A2984 RMK AO2 SLP106 T01060072
KIPT 072054Z 08009KT 10SM FEW025 SCT060 BKN070 11/07 A2984 RMK AO2 SLP106 60002 T01060072 58006
KIPT 071954Z 08008KT 10SM OVC055 11/07 A2984 RMK AO2 RAE16B32E43 SLP109 P0001 T01110067
KIPT 071854Z 08004KT 7SM -RA OVC047 11/07 A2986 RMK AO2 RAB10 SLP114 P0001 T01110072
KIPT 071754Z 03004KT 10SM OVC055 13/04 A2986 RMK AO2 RAB00E23 SLP111 P0000 60000 T01280044 10150 20056 56009
KIPT 071654Z 23005KT 10SM BKN050 OVC065 12/03 A2986 RMK AO2 SLP114 T01220028
KIPT 071554Z 13009KT 10SM OVC060 14/01 A2987 RMK AO2 SLP115 T01440006
KIPT 071454Z 00000KT 10SM SCT070 13/01 A2988 RMK AO2 SLP119 T01280011 58016
KIPT 071354Z 00000KT 10SM OVC070 10/03 A2990 RMK AO2 SLP127 T01000033
KIPT 071254Z 27003KT 10SM OVC085 07/03 A2992 RMK AO2 SLP132 T00720028
KIPT 071154Z 00000KT 10SM FEW080 BKN120 06/02 A2993 RMK AO2 SLP137 T00560017 10056 20028 50000
KIPT 071054Z 00000KT 10SM SCT095 04/01 A2993 RMK AO2 SLP138 T00390011
KIPT 070954Z AUTO 33003KT 10SM CLR 03/01 A2993 RMK AO2 SLP136 T00280006
KIPT 070854Z AUTO 00000KT 10SM CLR 03/01 A2993 RMK AO2 SLP137 T00280006 56014